createdAt,value
2022-10-20T00:01:45.598Z,8.88
2022-10-20T00:05:09.563Z,8.20
2022-10-20T00:08:33.615Z,6.18
2022-10-20T00:11:58.547Z,8.73
2022-10-20T00:15:22.584Z,7.65
2022-10-20T00:18:46.566Z,9.98
2022-10-20T00:22:11.526Z,9.27
2022-10-20T00:25:34.602Z,7.40
2022-10-20T00:28:58.522Z,9.05
2022-10-20T00:32:22.565Z,9.25
2022-10-20T00:35:48.593Z,5.78
2022-10-20T00:39:15.554Z,10.18
2022-10-20T00:42:39.553Z,5.32
2022-10-20T00:46:10.597Z,8.77
2022-10-20T00:49:38.515Z,8.25
2022-10-20T00:53:02.601Z,4.93
2022-10-20T00:56:26.513Z,7.28
2022-10-20T00:59:52.625Z,6.43
2022-10-20T01:03:17.572Z,5.78
2022-10-20T01:06:40.646Z,7.35
2022-10-20T01:10:04.554Z,6.82
2022-10-20T01:13:30.588Z,7.43
2022-10-20T01:17:16.619Z,8.13
2022-10-20T01:20:47.584Z,11.15
2022-10-20T01:24:20.666Z,7.28
2022-10-20T01:27:58.538Z,6.15
2022-10-20T01:31:45.628Z,9.48
2022-10-20T01:35:27.607Z,5.82
2022-10-20T01:38:54.616Z,7.18
2022-10-20T01:42:28.609Z,8.90
2022-10-20T01:45:46.654Z,9.65
2022-10-20T01:49:11.592Z,5.95
2022-10-20T01:52:35.866Z,4.80
2022-10-20T01:56:00.590Z,5.40
2022-10-20T01:59:55.576Z,7.53
2022-10-20T02:03:48.590Z,11.32
2022-10-20T02:07:16.596Z,6.50
2022-10-20T02:10:47.573Z,6.20
2022-10-20T02:14:12.596Z,6.43
2022-10-20T02:17:36.645Z,4.85
2022-10-20T02:21:01.617Z,6.13
2022-10-20T02:24:25.602Z,6.78
2022-10-20T02:27:52.602Z,6.25
2022-10-20T02:31:15.567Z,7.05
2022-10-20T02:34:43.592Z,11.57
2022-10-20T02:38:08.561Z,7.45
2022-10-20T02:41:31.615Z,7.32
2022-10-20T02:44:55.645Z,8.23
2022-10-20T02:48:18.619Z,7.53
2022-10-20T02:51:42.633Z,8.80
2022-10-20T02:55:01.196Z,7.80
2022-10-20T02:58:19.652Z,9.25
2022-10-20T03:01:42.718Z,8.55
2022-10-20T03:05:06.647Z,8.63
2022-10-20T03:08:30.655Z,7.15
2022-10-20T03:11:54.645Z,5.88
2022-10-20T03:15:18.641Z,5.82
2022-10-20T03:18:42.634Z,8.40
2022-10-20T03:22:06.623Z,13.55
2022-10-20T03:25:30.638Z,11.65
2022-10-20T03:28:54.629Z,9.10
2022-10-20T03:32:18.639Z,13.88
2022-10-20T03:35:41.676Z,9.18
2022-10-20T03:39:06.618Z,10.93
2022-10-20T03:42:30.665Z,8.95
2022-10-20T03:45:54.614Z,10.45
2022-10-20T03:49:18.666Z,8.32
2022-10-20T03:52:42.647Z,11.27
2022-10-20T03:55:59.245Z,10.63
2022-10-20T03:59:19.652Z,10.38
2022-10-20T04:02:57.637Z,9.93
2022-10-20T04:06:22.671Z,12.63
2022-10-20T04:09:45.671Z,11.85
2022-10-20T04:13:09.303Z,13.15
2022-10-20T04:16:33.678Z,15.07
2022-10-20T04:19:56.663Z,12.07
2022-10-20T04:23:21.666Z,11.55
2022-10-20T04:26:46.717Z,13.98
2022-10-20T04:30:10.684Z,15.25
2022-10-20T04:33:34.663Z,15.50
2022-10-20T04:36:58.676Z,13.48
2022-10-20T04:40:23.724Z,16.23
2022-10-20T04:43:48.643Z,13.95
2022-10-20T04:47:12.706Z,13.07
2022-10-20T04:50:35.694Z,13.93
2022-10-20T04:53:58.727Z,16.65
2022-10-20T04:57:16.260Z,14.30
2022-10-20T05:00:33.708Z,12.00
2022-10-20T05:03:57.649Z,16.25
2022-10-20T05:07:21.708Z,16.13
2022-10-20T05:10:44.659Z,14.13
2022-10-20T05:14:07.703Z,15.30
2022-10-20T05:17:31.679Z,11.43
2022-10-20T05:21:08.225Z,12.13
2022-10-20T05:24:33.686Z,13.88
2022-10-20T05:27:57.710Z,17.27
2022-10-20T05:31:23.715Z,13.55
2022-10-20T05:34:47.684Z,14.35
2022-10-20T05:38:13.821Z,14.50
2022-10-20T05:41:44.707Z,10.77
2022-10-20T05:45:07.732Z,12.35
2022-10-20T05:48:31.694Z,12.30
2022-10-20T05:51:54.742Z,13.15
2022-10-20T05:55:17.672Z,16.33
2022-10-20T05:58:41.728Z,11.57
2022-10-20T06:02:05.681Z,13.13
2022-10-20T06:05:28.725Z,12.05
2022-10-20T06:08:52.709Z,13.75
2022-10-20T06:12:16.731Z,15.40
2022-10-20T06:15:40.718Z,14.15
2022-10-20T06:19:03.700Z,14.48
2022-10-20T06:22:26.718Z,11.05
2022-10-20T06:25:49.699Z,12.23
2022-10-20T06:29:13.714Z,13.65
2022-10-20T06:32:39.005Z,14.20
2022-10-20T06:36:03.709Z,14.45
2022-10-20T06:39:28.737Z,17.63
2022-10-20T06:42:52.762Z,13.27
2022-10-20T06:46:20.715Z,13.20
2022-10-20T06:49:44.751Z,16.38
2022-10-20T06:53:08.712Z,14.65
2022-10-20T06:56:43.755Z,16.98
2022-10-20T07:00:07.735Z,16.35
2022-10-20T07:03:31.717Z,16.70
2022-10-20T07:06:49.735Z,11.05
2022-10-20T07:10:13.754Z,12.65
2022-10-20T07:13:37.728Z,15.00
2022-10-20T07:17:00.742Z,16.42
2022-10-20T07:20:24.799Z,15.70
2022-10-20T07:23:50.754Z,13.85
2022-10-20T07:27:14.740Z,16.33
2022-10-20T07:30:37.745Z,14.90
2022-10-20T07:34:07.434Z,17.35
2022-10-20T07:37:38.331Z,15.32
2022-10-20T07:41:02.753Z,14.00
2022-10-20T07:44:26.754Z,16.23
2022-10-20T07:47:50.736Z,17.52
2022-10-20T07:51:43.858Z,13.32
2022-10-20T07:55:17.892Z,19.05
2022-10-20T07:58:52.752Z,15.73
2022-10-20T08:02:17.789Z,13.73
2022-10-20T08:05:41.755Z,16.25
2022-10-20T08:09:04.816Z,18.38
2022-10-20T08:12:28.740Z,13.77
2022-10-20T08:15:52.804Z,12.13
2022-10-20T08:22:55.745Z,16.73
2022-10-20T08:26:19.761Z,15.15
2022-10-20T08:29:50.806Z,16.33
2022-10-20T08:33:24.784Z,10.85
2022-10-20T08:36:48.759Z,15.95
2022-10-20T08:40:11.801Z,17.30
2022-10-20T08:43:35.787Z,13.52
2022-10-20T08:47:00.839Z,19.33
2022-10-20T08:50:29.738Z,14.07
2022-10-20T08:53:54.813Z,12.73
2022-10-20T08:57:20.755Z,13.15
2022-10-20T09:00:45.797Z,11.20
2022-10-20T09:04:31.789Z,14.52
2022-10-20T09:07:57.794Z,13.15
2022-10-20T09:11:23.749Z,13.13
2022-10-20T09:14:51.797Z,13.57
2022-10-20T09:18:21.791Z,14.80
2022-10-20T09:21:45.768Z,14.68
2022-10-20T09:25:11.815Z,12.82
2022-10-20T09:28:55.591Z,19.10
2022-10-20T09:32:48.903Z,17.60
2022-10-20T09:36:26.769Z,19.90
2022-10-20T09:40:01.799Z,15.38
2022-10-20T09:43:29.778Z,17.35
2022-10-20T09:46:59.804Z,15.40
2022-10-20T09:50:26.763Z,17.08
2022-10-20T09:53:53.807Z,15.43
2022-10-20T09:57:23.767Z,18.98
2022-10-20T10:00:48.878Z,19.15
2022-10-20T10:04:12.806Z,14.13
2022-10-20T10:07:42.814Z,13.23
2022-10-20T10:11:20.817Z,9.18
2022-10-20T10:14:45.815Z,7.55
2022-10-20T10:18:10.825Z,9.00
2022-10-20T10:21:34.804Z,6.18
2022-10-20T10:24:59.837Z,7.90
2022-10-20T10:28:51.777Z,8.00
2022-10-20T10:32:16.830Z,8.38
2022-10-20T10:35:48.812Z,7.25
2022-10-20T10:39:12.823Z,8.10
2022-10-20T10:43:05.826Z,7.47
2022-10-20T10:50:11.847Z,6.50
2022-10-20T10:53:56.825Z,10.52
2022-10-20T10:57:45.817Z,7.15
2022-10-20T11:01:28.820Z,6.03
2022-10-20T11:05:03.960Z,5.97
2022-10-20T11:08:45.904Z,7.22
2022-10-20T11:12:14.833Z,7.30
2022-10-20T11:15:46.847Z,4.88
2022-10-20T11:19:35.857Z,4.88
2022-10-20T11:27:08.970Z,5.32
2022-10-20T11:30:35.812Z,5.25
2022-10-20T11:34:01.838Z,6.55
2022-10-20T11:37:43.813Z,7.93
2022-10-20T11:41:35.877Z,10.23
2022-10-20T11:44:59.820Z,6.70
2022-10-20T11:48:27.886Z,5.18
2022-10-20T11:52:16.826Z,8.32
2022-10-20T11:55:58.860Z,8.85
2022-10-20T11:59:46.837Z,11.50
2022-10-20T12:03:40.853Z,15.00
2022-10-20T12:07:31.827Z,12.75
2022-10-20T12:11:17.849Z,13.65
2022-10-20T12:14:50.837Z,15.57
2022-10-20T12:18:21.870Z,14.68
2022-10-20T12:22:20.843Z,17.45
2022-10-20T12:25:54.945Z,14.82
2022-10-20T12:30:00.836Z,17.23
2022-10-20T12:33:49.860Z,18.50
2022-10-20T12:37:22.839Z,17.58
2022-10-20T12:40:48.889Z,15.82
2022-10-20T12:44:17.846Z,17.92
2022-10-20T12:47:46.916Z,16.48
2022-10-20T12:51:18.850Z,17.25
2022-10-20T12:54:48.903Z,16.98
2022-10-20T12:58:39.838Z,13.93
2022-10-20T13:02:17.880Z,16.73
2022-10-20T13:05:48.502Z,17.20
2022-10-20T13:09:12.931Z,19.35
2022-10-20T13:12:40.851Z,22.45
2022-10-20T13:16:07.884Z,18.27
2022-10-20T13:19:37.865Z,21.25
2022-10-20T13:23:02.889Z,17.20
2022-10-20T13:26:38.902Z,15.82
2022-10-20T13:30:03.860Z,18.55
2022-10-20T13:34:03.861Z,15.73
2022-10-20T13:37:42.890Z,15.85
2022-10-20T13:41:35.870Z,13.50
2022-10-20T13:45:20.901Z,21.55
2022-10-20T13:49:22.866Z,17.15
2022-10-20T13:52:49.920Z,22.55
2022-10-20T13:56:35.222Z,15.40
2022-10-20T14:00:10.914Z,17.50
2022-10-20T14:03:34.875Z,17.77
2022-10-20T14:06:55.913Z,17.73
2022-10-20T14:10:21.902Z,16.58
2022-10-20T14:13:46.884Z,18.83
2022-10-20T14:17:14.898Z,20.23
2022-10-20T14:20:38.887Z,18.17
2022-10-20T14:24:03.903Z,17.25
2022-10-20T14:27:38.156Z,13.52
2022-10-20T14:31:04.897Z,17.58
2022-10-20T14:34:37.921Z,15.05
2022-10-20T14:38:09.911Z,15.43
2022-10-20T14:41:48.865Z,16.88
2022-10-20T14:45:13.925Z,11.27
2022-10-20T14:48:37.888Z,11.48
2022-10-20T14:52:16.498Z,8.90
2022-10-20T14:55:45.895Z,10.93
2022-10-20T14:59:16.929Z,12.75
2022-10-20T15:02:52.888Z,10.63
2022-10-20T15:06:18.925Z,10.77
2022-10-20T15:10:11.939Z,10.35
2022-10-20T15:13:39.941Z,11.10
2022-10-20T15:17:04.919Z,12.23
2022-10-20T15:20:49.934Z,12.45
2022-10-20T15:24:12.939Z,10.27
2022-10-20T15:27:36.930Z,12.18
2022-10-20T15:30:59.917Z,12.85
2022-10-20T15:34:20.955Z,10.48
2022-10-20T15:37:43.964Z,14.63
2022-10-20T15:41:07.908Z,12.38
2022-10-20T15:44:34.961Z,12.13
2022-10-20T15:47:59.947Z,10.75
2022-10-20T15:51:43.954Z,14.40
2022-10-20T15:55:08.030Z,14.32
2022-10-20T15:58:30.917Z,16.58
2022-10-20T16:01:54.944Z,13.70
2022-10-20T16:05:19.921Z,17.63
2022-10-20T16:08:43.996Z,12.23
2022-10-20T16:12:08.940Z,14.23
2022-10-20T16:15:33.958Z,20.30
2022-10-20T16:18:57.921Z,15.40
2022-10-20T16:22:22.965Z,17.50
2022-10-20T16:25:46.918Z,17.67
2022-10-20T16:29:11.007Z,19.83
2022-10-20T16:32:35.484Z,16.92
2022-10-20T16:36:00.003Z,18.17
2022-10-20T16:39:24.939Z,18.30
2022-10-20T16:42:47.971Z,16.83
2022-10-20T16:46:11.986Z,21.75
2022-10-20T16:49:36.993Z,14.82
2022-10-20T16:53:00.962Z,19.70
2022-10-20T16:56:23.970Z,18.13
2022-10-20T16:59:47.954Z,21.90
2022-10-20T17:03:15.808Z,17.83
2022-10-20T17:06:41.940Z,14.38
2022-10-20T17:10:05.969Z,19.30
2022-10-20T17:13:29.947Z,19.20
2022-10-20T17:16:54.971Z,18.08
2022-10-20T17:20:19.999Z,23.70
2022-10-20T17:23:46.961Z,17.55
2022-10-20T17:27:11.018Z,17.90
2022-10-20T17:30:37.950Z,19.45
2022-10-20T17:34:04.019Z,19.27
2022-10-20T17:37:27.990Z,19.60
2022-10-20T17:40:53.984Z,18.95
2022-10-20T17:44:18.970Z,18.98
2022-10-20T17:47:43.000Z,19.52
2022-10-20T17:51:19.948Z,19.75
2022-10-20T17:54:42.997Z,26.83
2022-10-20T17:58:06.963Z,19.95
2022-10-20T18:01:38.072Z,20.15
2022-10-20T18:05:01.007Z,20.40
2022-10-20T18:08:17.595Z,18.25
2022-10-20T18:11:38.001Z,16.92
2022-10-20T18:15:01.993Z,22.00
2022-10-20T18:18:25.988Z,24.02
2022-10-20T18:21:48.967Z,17.60
2022-10-20T18:25:15.001Z,15.90
2022-10-20T18:28:33.003Z,11.75
2022-10-20T18:31:58.988Z,18.35
2022-10-20T18:35:23.030Z,17.55
2022-10-20T18:38:49.012Z,14.98
2022-10-20T18:42:12.985Z,15.70
2022-10-20T18:45:37.056Z,17.52
2022-10-20T18:49:00.993Z,18.33
2022-10-20T18:52:25.028Z,17.60
2022-10-20T18:55:48.964Z,14.55
2022-10-20T18:59:20.033Z,17.70
2022-10-20T19:06:15.035Z,17.65
2022-10-20T19:09:33.619Z,15.80
2022-10-20T19:12:52.021Z,15.90
2022-10-20T19:16:23.986Z,18.45
2022-10-20T19:19:51.037Z,19.42
2022-10-20T19:23:14.976Z,17.35
2022-10-20T19:26:42.023Z,15.80
2022-10-20T19:30:08.999Z,16.55
2022-10-20T19:33:33.151Z,18.33
2022-10-20T19:36:56.981Z,16.65
2022-10-20T19:40:24.873Z,12.50
2022-10-20T19:43:53.030Z,11.73
2022-10-20T19:47:16.029Z,19.42
2022-10-20T19:50:40.022Z,14.05
2022-10-20T19:54:05.039Z,15.00
2022-10-20T19:57:29.024Z,16.60
2022-10-20T20:00:53.067Z,15.88
2022-10-20T20:04:19.031Z,16.42
2022-10-20T20:07:44.027Z,17.05
2022-10-20T20:11:03.593Z,17.88
2022-10-20T20:14:25.034Z,17.83
2022-10-20T20:17:48.053Z,15.70
2022-10-20T20:21:17.041Z,15.32
2022-10-20T20:24:42.027Z,15.80
2022-10-20T20:28:08.044Z,13.35
2022-10-20T20:31:31.040Z,12.10
2022-10-20T20:34:55.125Z,19.20
2022-10-20T20:38:18.059Z,13.50
2022-10-20T20:41:43.013Z,14.13
2022-10-20T20:45:06.054Z,13.88
2022-10-20T20:48:29.142Z,11.38
2022-10-20T20:51:52.034Z,10.07
2022-10-20T20:55:15.080Z,11.55
2022-10-20T20:58:39.031Z,10.50
2022-10-20T21:02:03.072Z,12.65
2022-10-20T21:05:27.028Z,13.10
2022-10-20T21:08:58.126Z,25.90
2022-10-20T21:12:22.063Z,15.43
2022-10-20T21:15:47.056Z,17.27
2022-10-20T21:19:13.069Z,11.65
2022-10-20T21:22:37.362Z,10.73
2022-10-20T21:26:02.038Z,11.77
2022-10-20T21:29:25.076Z,11.15
2022-10-20T21:32:50.034Z,9.32
2022-10-20T21:36:22.082Z,11.25
2022-10-20T21:39:46.042Z,10.15
2022-10-20T21:43:10.083Z,12.38
2022-10-20T21:46:45.036Z,9.65
2022-10-20T21:50:08.080Z,11.60
2022-10-20T21:53:32.036Z,10.13
2022-10-20T21:56:58.093Z,9.13
2022-10-20T22:00:24.128Z,8.95
2022-10-20T22:03:48.063Z,9.00
2022-10-20T22:07:13.105Z,9.98
2022-10-20T22:10:37.075Z,8.20
2022-10-20T22:14:02.094Z,10.40
2022-10-20T22:17:26.082Z,9.48
2022-10-20T22:20:52.075Z,11.50
2022-10-20T22:24:09.098Z,10.52
2022-10-20T22:27:42.323Z,10.57
2022-10-20T22:31:07.112Z,11.07
2022-10-20T22:34:30.096Z,9.95
2022-10-20T22:37:54.217Z,12.00
2022-10-20T22:41:18.078Z,11.52
2022-10-20T22:44:42.133Z,14.55
2022-10-20T22:48:05.081Z,11.48
2022-10-20T22:51:28.101Z,12.90
2022-10-20T22:54:52.125Z,9.80
2022-10-20T22:58:16.088Z,8.35
2022-10-20T23:01:39.095Z,12.85
2022-10-20T23:04:56.206Z,9.98
2022-10-20T23:08:20.091Z,16.08
2022-10-20T23:11:44.105Z,12.48
2022-10-20T23:15:08.123Z,13.50
2022-10-20T23:18:32.112Z,9.75
2022-10-20T23:21:56.238Z,11.05
2022-10-20T23:25:19.114Z,9.95
2022-10-20T23:28:43.229Z,7.80
2022-10-20T23:32:08.133Z,10.55
2022-10-20T23:35:33.134Z,10.45
2022-10-20T23:38:57.112Z,9.95
2022-10-20T23:42:22.126Z,8.88
2022-10-20T23:45:46.111Z,11.63
2022-10-20T23:49:10.126Z,9.27
2022-10-20T23:52:33.148Z,10.68
2022-10-20T23:55:58.146Z,8.15
2022-10-20T23:59:21.111Z,9.13
